Weather at Málaga-Costa del Sol Airport

Public forecast

Using degrees Celsius for public forecast. Weather courtesy of forecast.io.

Current aviation weather report (METAR) for Málaga-Costa del Sol Airport

Report is more than 6 hours old.

2022/11/14 15:30 (retrieved 2 years ago)

LEMG 141530Z 27007KT 9999 FEW060 25/10 Q1018 NOSIG

Aviation forecast (TAF) for Málaga-Costa del Sol Airport

Forecast is more than 12 hours old.

2023/02/22 18:27 (retrieved 1 year ago)

TAF LEMG 221700Z 2218/2318 VRB02KT 9000 NSC TX20/2314Z TN10/2306Z BECMG 2220/2222 29010KT BECMG 2309/2311 21006KT BECMG 2316/2318 29010KT